createdAt,value
2023-10-23T00:02:25.321Z,98633.00
2023-10-23T00:04:51.423Z,98630.60
2023-10-23T00:07:17.680Z,98631.80
2023-10-23T00:09:43.772Z,98633.20
2023-10-23T00:12:10.007Z,98632.80
2023-10-23T00:14:36.583Z,98635.60
2023-10-23T00:17:02.514Z,98640.60
2023-10-23T00:19:28.288Z,98639.20
2023-10-23T00:21:54.413Z,98636.20
2023-10-23T00:24:20.249Z,98633.00
2023-10-23T00:26:46.124Z,98637.60
2023-10-23T00:29:11.971Z,98636.40
2023-10-23T00:31:37.702Z,98638.20
2023-10-23T00:34:03.583Z,98636.60
2023-10-23T00:36:29.473Z,98640.20
2023-10-23T00:38:55.238Z,98641.40
2023-10-23T00:41:20.971Z,98638.40
2023-10-23T00:43:46.743Z,98636.40
2023-10-23T00:48:40.463Z,98642.80
2023-10-23T00:51:07.817Z,98642.00
2023-10-23T00:53:37.836Z,98646.20
2023-10-23T00:56:06.518Z,98649.40
2023-10-23T00:58:33.541Z,98649.60
2023-10-23T01:01:01.761Z,98652.80
2023-10-23T01:03:27.796Z,98647.60
2023-10-23T01:05:53.592Z,98652.40
2023-10-23T01:08:19.391Z,98654.80
2023-10-23T01:10:46.305Z,98650.80
2023-10-23T01:13:12.991Z,98652.80
2023-10-23T01:15:39.833Z,98652.20
2023-10-23T01:18:06.757Z,98656.20
2023-10-23T01:20:33.002Z,98657.20
2023-10-23T01:23:01.300Z,98657.40
2023-10-23T01:25:27.946Z,98657.40
2023-10-23T01:27:55.119Z,98661.00
2023-10-23T01:30:21.679Z,98664.40
2023-10-23T01:32:48.345Z,98661.40
2023-10-23T01:35:14.093Z,98661.40
2023-10-23T01:37:43.396Z,98665.00
2023-10-23T01:40:10.088Z,98664.00
2023-10-23T01:42:35.951Z,98663.00
2023-10-23T01:45:01.997Z,98665.60
2023-10-23T01:47:27.770Z,98665.20
2023-10-23T01:49:54.177Z,98668.00
2023-10-23T01:52:20.474Z,98668.80
2023-10-23T01:54:46.762Z,98666.60
2023-10-23T01:57:13.398Z,98662.40
2023-10-23T01:59:39.769Z,98663.00
2023-10-23T02:02:05.777Z,98659.00
2023-10-23T02:04:34.925Z,98656.60
2023-10-23T02:07:01.383Z,98658.20
2023-10-23T02:09:28.622Z,98662.00
2023-10-23T02:11:54.521Z,98664.20
2023-10-23T02:14:20.447Z,98665.80
2023-10-23T02:16:46.524Z,98664.60
2023-10-23T02:19:12.649Z,98668.40
2023-10-23T02:21:38.416Z,98668.40
2023-10-23T02:24:05.303Z,98671.60
2023-10-23T02:26:32.323Z,98666.00
2023-10-23T02:28:58.526Z,98660.80
2023-10-23T02:31:24.543Z,98671.40
2023-10-23T02:33:50.469Z,98670.40
2023-10-23T02:36:16.770Z,98673.20
2023-10-23T02:38:43.212Z,98674.60
2023-10-23T02:41:09.088Z,98679.00
2023-10-23T02:43:34.871Z,98680.00
2023-10-23T02:46:07.503Z,98682.20
2023-10-23T02:48:33.577Z,98684.80
2023-10-23T02:50:59.386Z,98684.40
2023-10-23T02:53:25.509Z,98684.00
2023-10-23T02:55:51.951Z,98680.40
2023-10-23T02:58:18.931Z,98680.60
2023-10-23T03:00:45.538Z,98681.60
2023-10-23T03:03:12.194Z,98683.80
2023-10-23T03:05:38.620Z,98682.60
2023-10-23T03:08:05.708Z,98683.20
2023-10-23T03:10:32.594Z,98675.00
2023-10-23T03:12:58.818Z,98670.40
2023-10-23T03:15:25.009Z,98675.60
2023-10-23T03:17:54.197Z,98671.40
2023-10-23T03:20:20.192Z,98670.40
2023-10-23T03:22:45.986Z,98677.20
2023-10-23T03:25:12.012Z,98687.80
2023-10-23T03:27:37.823Z,98683.40
2023-10-23T03:30:04.630Z,98688.60
2023-10-23T03:32:30.389Z,98690.40
2023-10-23T03:34:57.805Z,98682.20
2023-10-23T03:37:25.666Z,98688.40
2023-10-23T03:39:51.506Z,98686.80
2023-10-23T03:42:17.346Z,98690.80
2023-10-23T03:44:43.071Z,98684.60
2023-10-23T03:47:08.818Z,98686.00
2023-10-23T03:49:34.582Z,98688.00
2023-10-23T03:52:00.353Z,98687.40
2023-10-23T03:54:26.140Z,98691.40
2023-10-23T03:56:51.838Z,98691.80
2023-10-23T03:59:17.585Z,98692.00
2023-10-23T04:01:43.329Z,98697.20
2023-10-23T04:04:09.204Z,98697.80
2023-10-23T04:06:34.988Z,98693.80
2023-10-23T04:09:00.739Z,98695.00
2023-10-23T04:11:26.854Z,98695.40
2023-10-23T04:13:52.908Z,98697.20
2023-10-23T04:16:18.670Z,98698.20
2023-10-23T04:18:44.534Z,98706.40
2023-10-23T04:21:12.440Z,98711.40
2023-10-23T04:23:40.037Z,98715.40
2023-10-23T04:26:07.543Z,98714.80
2023-10-23T04:28:35.353Z,98716.80
2023-10-23T04:31:01.359Z,98716.60
2023-10-23T04:33:27.707Z,98720.40
2023-10-23T04:35:56.101Z,98731.80
2023-10-23T04:38:23.275Z,98730.20
2023-10-23T04:40:50.749Z,98725.40
2023-10-23T04:43:17.186Z,98724.40
2023-10-23T04:45:43.323Z,98737.80
2023-10-23T04:48:09.937Z,98737.40
2023-10-23T04:50:38.646Z,98734.80
2023-10-23T04:53:05.876Z,98733.20
2023-10-23T04:55:36.333Z,98737.40
2023-10-23T04:58:03.034Z,98735.20
2023-10-23T05:00:29.814Z,98735.00
2023-10-23T05:02:56.028Z,98735.80
2023-10-23T05:05:22.625Z,98740.40
2023-10-23T05:07:48.332Z,98744.40
2023-10-23T05:10:14.168Z,98743.80
2023-10-23T05:12:40.339Z,98738.40
2023-10-23T05:15:08.560Z,98741.80
2023-10-23T05:17:35.410Z,98743.80
2023-10-23T05:20:01.878Z,98746.00
2023-10-23T05:22:27.889Z,98747.20
2023-10-23T05:24:53.724Z,98749.40
2023-10-23T05:27:19.716Z,98761.60
2023-10-23T05:29:45.468Z,98773.40
2023-10-23T05:32:12.318Z,98782.80
2023-10-23T05:34:38.079Z,98783.00
2023-10-23T05:37:04.209Z,98780.00
2023-10-23T05:39:30.075Z,98782.80
2023-10-23T05:41:55.979Z,98790.40
2023-10-23T05:44:22.029Z,98802.60
2023-10-23T05:46:47.808Z,98802.80
2023-10-23T05:49:13.703Z,98801.60
2023-10-23T05:51:39.526Z,98804.80
2023-10-23T05:54:05.680Z,98810.60
2023-10-23T05:56:31.457Z,98811.60
2023-10-23T05:58:59.825Z,98814.00
2023-10-23T06:01:25.620Z,98822.00
2023-10-23T06:03:53.529Z,98827.00
2023-10-23T06:06:19.478Z,98832.20
2023-10-23T06:08:45.273Z,98841.20
2023-10-23T06:11:12.076Z,98838.60
2023-10-23T06:13:38.975Z,98837.40
2023-10-23T06:16:06.205Z,98843.60
2023-10-23T06:18:36.576Z,98843.80
2023-10-23T06:21:05.647Z,98846.00
2023-10-23T06:23:37.990Z,98845.00
2023-10-23T06:26:05.036Z,98845.20
2023-10-23T06:28:33.169Z,98846.40
2023-10-23T06:31:10.065Z,98848.80
2023-10-23T06:33:39.287Z,98849.20
2023-10-23T06:36:08.200Z,98852.20
2023-10-23T06:38:33.933Z,98858.80
2023-10-23T06:41:07.915Z,98853.80
2023-10-23T06:43:36.280Z,98856.60
2023-10-23T06:46:03.165Z,98856.20
2023-10-23T06:48:32.978Z,98852.80
2023-10-23T06:50:59.997Z,98853.20
2023-10-23T06:53:26.938Z,98859.00
2023-10-23T06:55:55.403Z,98863.80
2023-10-23T06:58:21.697Z,98865.60
2023-10-23T07:00:48.739Z,98865.20
2023-10-23T07:03:15.195Z,98863.80
2023-10-23T07:05:41.813Z,98865.60
2023-10-23T07:08:08.008Z,98864.40
2023-10-23T07:10:35.467Z,98863.80
2023-10-23T07:13:11.116Z,98863.40
2023-10-23T07:15:41.390Z,98863.80
2023-10-23T07:18:07.321Z,98856.20
2023-10-23T07:20:33.190Z,98860.00
2023-10-23T07:22:59.520Z,98863.80
2023-10-23T07:25:25.261Z,98861.40
2023-10-23T07:27:50.978Z,98866.40
2023-10-23T07:30:16.932Z,98863.00
2023-10-23T07:32:44.200Z,98861.80
2023-10-23T07:35:10.076Z,98859.20
2023-10-23T07:37:35.926Z,98861.40
2023-10-23T07:40:05.198Z,98867.20
2023-10-23T07:42:31.995Z,98863.40
2023-10-23T07:44:58.086Z,98872.80
2023-10-23T07:47:23.997Z,98868.40
2023-10-23T07:49:49.802Z,98870.80
2023-10-23T07:54:41.342Z,98882.20
2023-10-23T07:57:07.097Z,98886.60
2023-10-23T07:59:33.047Z,98894.00
2023-10-23T08:01:58.907Z,98891.80
2023-10-23T08:04:24.756Z,98892.20
2023-10-23T08:06:50.640Z,98891.60
2023-10-23T08:09:16.437Z,98896.00
2023-10-23T08:11:42.218Z,98898.20
2023-10-23T08:14:08.865Z,98899.20
2023-10-23T08:16:34.981Z,98898.80
2023-10-23T08:19:00.868Z,98901.40
2023-10-23T08:21:28.017Z,98907.00
2023-10-23T08:23:54.765Z,98906.80
2023-10-23T08:26:21.571Z,98899.40
2023-10-23T08:29:01.342Z,98897.60
2023-10-23T08:31:39.470Z,98895.20
2023-10-23T08:34:08.368Z,98896.00
2023-10-23T08:36:34.865Z,98899.40
2023-10-23T08:39:01.299Z,98896.00
2023-10-23T08:41:27.525Z,98901.00
2023-10-23T08:43:55.382Z,98903.20
2023-10-23T08:46:25.899Z,98905.60
2023-10-23T08:48:52.562Z,98905.40
2023-10-23T08:51:19.151Z,98904.60
2023-10-23T08:54:11.179Z,98909.80
2023-10-23T08:56:43.173Z,98906.80
2023-10-23T08:59:11.663Z,98912.20
2023-10-23T09:01:38.767Z,98912.20
2023-10-23T09:04:07.576Z,98911.80
2023-10-23T09:06:35.907Z,98911.40
2023-10-23T09:09:05.336Z,98914.20
2023-10-23T09:11:49.118Z,98919.80
2023-10-23T09:14:16.640Z,98919.60
2023-10-23T09:16:42.570Z,98917.40
2023-10-23T09:19:08.398Z,98915.60
2023-10-23T09:21:34.339Z,98920.60
2023-10-23T09:24:07.060Z,98921.60
2023-10-23T09:26:32.852Z,98922.00
2023-10-23T09:28:58.809Z,98930.40
2023-10-23T09:31:25.205Z,98927.20
2023-10-23T09:33:51.766Z,98924.20
2023-10-23T09:36:19.270Z,98927.00
2023-10-23T09:39:01.058Z,98918.00
2023-10-23T09:41:28.265Z,98912.80
2023-10-23T09:44:01.045Z,98910.80
2023-10-23T09:46:42.831Z,98914.00
2023-10-23T09:49:10.236Z,98912.80
2023-10-23T09:51:40.432Z,98912.80
2023-10-23T09:54:16.524Z,98905.80
2023-10-23T09:56:54.010Z,98907.00
2023-10-23T09:59:35.846Z,98903.60
2023-10-23T10:02:06.567Z,98899.40
2023-10-23T10:04:53.290Z,98899.60
2023-10-23T10:07:31.879Z,98900.40
2023-10-23T10:09:58.950Z,98898.20
2023-10-23T10:12:38.141Z,98893.60
2023-10-23T10:15:12.371Z,98899.40
2023-10-23T10:17:42.217Z,98898.80
2023-10-23T10:20:10.806Z,98893.40
2023-10-23T10:22:44.986Z,98889.60
2023-10-23T10:25:12.311Z,98890.20
2023-10-23T10:27:38.094Z,98888.80
2023-10-23T10:30:06.150Z,98882.80
2023-10-23T10:32:34.980Z,98885.40
2023-10-23T10:35:42.158Z,98885.00
2023-10-23T10:38:13.323Z,98880.40
2023-10-23T10:41:05.636Z,98881.80
2023-10-23T10:43:40.136Z,98882.80
2023-10-23T10:49:07.585Z,98881.00
2023-10-23T10:51:34.793Z,98884.20
2023-10-23T10:54:16.874Z,98880.20
2023-10-23T10:56:44.586Z,98882.80
2023-10-23T10:59:10.282Z,98880.00
2023-10-23T11:01:36.435Z,98886.60
2023-10-23T11:04:03.357Z,98881.60
2023-10-23T11:06:39.624Z,98886.60
2023-10-23T11:09:07.139Z,98881.60
2023-10-23T11:11:32.898Z,98876.80
2023-10-23T11:14:01.330Z,98880.00
2023-10-23T11:16:29.659Z,98884.00
2023-10-23T11:19:04.704Z,98877.40
2023-10-23T11:21:33.301Z,98879.00
2023-10-23T11:24:00.940Z,98876.00
2023-10-23T11:26:27.003Z,98879.00
2023-10-23T11:28:53.027Z,98877.00
2023-10-23T11:33:56.904Z,98873.20
2023-10-23T11:36:22.743Z,98870.60
2023-10-23T11:38:48.507Z,98871.40
2023-10-23T11:41:14.803Z,98871.80
2023-10-23T11:43:58.990Z,98872.00
2023-10-23T11:46:25.267Z,98876.00
2023-10-23T11:48:51.086Z,98873.00
2023-10-23T11:51:16.798Z,98865.80
2023-10-23T11:53:43.235Z,98862.80
2023-10-23T11:56:12.052Z,98866.80
2023-10-23T11:58:37.800Z,98869.80
2023-10-23T12:01:05.265Z,98871.80
2023-10-23T12:03:31.124Z,98869.60
2023-10-23T12:05:56.925Z,98867.20
2023-10-23T12:08:23.322Z,98871.00
2023-10-23T12:10:52.151Z,98874.00
2023-10-23T12:13:18.433Z,98877.60
2023-10-23T12:15:44.208Z,98877.60
2023-10-23T12:18:09.983Z,98878.40
2023-10-23T12:20:35.773Z,98877.40
2023-10-23T12:23:01.729Z,98878.80
2023-10-23T12:25:30.353Z,98884.80
2023-10-23T12:27:56.596Z,98876.40
2023-10-23T12:30:23.755Z,98880.40
2023-10-23T12:33:15.807Z,98883.00
2023-10-23T12:35:42.302Z,98879.00
2023-10-23T12:41:15.514Z,98880.00
2023-10-23T12:43:41.326Z,98879.00
2023-10-23T12:46:08.042Z,98880.60
2023-10-23T12:48:34.179Z,98881.60
2023-10-23T12:51:00.832Z,98882.00
2023-10-23T12:53:26.729Z,98880.40
2023-10-23T12:55:52.587Z,98881.60
2023-10-23T12:58:18.379Z,98882.80
2023-10-23T13:00:44.163Z,98888.80
2023-10-23T13:03:10.333Z,98892.20
2023-10-23T13:05:42.205Z,98888.40
2023-10-23T13:08:08.015Z,98887.40
2023-10-23T13:10:34.194Z,98887.40
2023-10-23T13:13:00.198Z,98886.60
2023-10-23T13:15:26.361Z,98884.40
2023-10-23T13:17:56.881Z,98883.00
2023-10-23T13:21:26.899Z,98886.00
2023-10-23T13:23:08.503Z,98885.40
2023-10-23T13:25:35.279Z,98886.20
2023-10-23T13:28:01.594Z,98883.60
2023-10-23T13:30:27.789Z,98881.60
2023-10-23T13:32:53.741Z,98886.60
2023-10-23T13:35:19.622Z,98884.40
2023-10-23T13:37:45.448Z,98885.80
2023-10-23T13:40:11.577Z,98882.60
2023-10-23T13:42:38.401Z,98883.60
2023-10-23T13:45:08.116Z,98886.40
2023-10-23T13:47:33.899Z,98890.80
2023-10-23T13:49:59.934Z,98886.20
2023-10-23T13:52:27.421Z,98890.40
2023-10-23T13:54:59.364Z,98884.20
2023-10-23T13:57:28.330Z,98882.60
2023-10-23T13:59:57.148Z,98884.00
2023-10-23T14:02:23.064Z,98885.60
2023-10-23T14:04:48.920Z,98882.20
2023-10-23T14:07:14.832Z,98882.20
2023-10-23T14:09:46.433Z,98877.20
2023-10-23T14:12:15.043Z,98875.00
2023-10-23T14:14:41.582Z,98874.60
2023-10-23T14:17:14.457Z,98870.60
2023-10-23T14:20:09.859Z,98867.80
2023-10-23T14:22:40.902Z,98863.40
2023-10-23T14:25:09.278Z,98855.40
2023-10-23T14:27:42.886Z,98853.80
2023-10-23T14:30:09.063Z,98848.60
2023-10-23T14:32:36.250Z,98846.20
2023-10-23T14:35:03.280Z,98841.60
2023-10-23T14:37:29.179Z,98840.80
2023-10-23T14:39:57.179Z,98839.20
2023-10-23T14:42:25.192Z,98839.20
2023-10-23T14:44:50.955Z,98837.60
2023-10-23T14:47:17.113Z,98837.40
2023-10-23T14:49:43.079Z,98839.00
2023-10-23T14:52:09.927Z,98842.00
2023-10-23T14:57:18.069Z,98845.20
2023-10-23T14:59:44.245Z,98852.40
2023-10-23T15:02:10.172Z,98851.40
2023-10-23T15:04:37.310Z,98851.40
2023-10-23T15:07:06.837Z,98858.80
2023-10-23T15:09:35.421Z,98861.60
2023-10-23T15:12:01.245Z,98866.20
2023-10-23T15:14:27.023Z,98866.20
2023-10-23T15:16:53.653Z,98870.60
2023-10-23T15:19:19.567Z,98868.20
2023-10-23T15:21:45.533Z,98871.40
2023-10-23T15:24:12.751Z,98871.20
2023-10-23T15:26:38.635Z,98872.20
2023-10-23T15:29:04.443Z,98874.20
2023-10-23T15:31:30.459Z,98877.60
2023-10-23T15:33:56.488Z,98878.40
2023-10-23T15:36:22.328Z,98876.00
2023-10-23T15:38:48.376Z,98879.60
2023-10-23T15:41:14.892Z,98873.60
2023-10-23T15:43:45.137Z,98877.20
2023-10-23T15:46:16.161Z,98876.20
2023-10-23T15:48:43.681Z,98880.00
2023-10-23T15:51:09.912Z,98884.20
2023-10-23T15:53:36.804Z,98889.40
2023-10-23T15:56:03.533Z,98892.00
2023-10-23T15:58:30.042Z,98890.60
2023-10-23T16:00:57.259Z,98891.60
2023-10-23T16:03:24.120Z,98890.80
2023-10-23T16:05:52.864Z,98897.60
2023-10-23T16:08:19.059Z,98896.80
2023-10-23T16:10:50.385Z,98899.60
2023-10-23T16:13:19.359Z,98895.80
2023-10-23T16:15:46.197Z,98895.20
2023-10-23T16:18:15.437Z,98892.00
2023-10-23T16:20:42.697Z,98892.20
2023-10-23T16:23:11.193Z,98892.40
2023-10-23T16:25:40.603Z,98895.20
2023-10-23T16:28:07.962Z,98893.80
2023-10-23T16:30:34.261Z,98887.80
2023-10-23T16:33:00.053Z,98889.20
2023-10-23T16:35:25.887Z,98889.00
2023-10-23T16:37:52.548Z,98891.00
2023-10-23T16:40:19.299Z,98889.80
2023-10-23T16:42:46.729Z,98882.80
2023-10-23T16:45:13.149Z,98893.20
2023-10-23T16:47:39.053Z,98890.80
2023-10-23T16:50:06.684Z,98895.40
2023-10-23T16:52:35.147Z,98885.20
2023-10-23T16:55:03.502Z,98885.00
2023-10-23T16:57:29.591Z,98884.20
2023-10-23T16:59:55.613Z,98879.00
2023-10-23T17:04:47.085Z,98873.80
2023-10-23T17:07:14.287Z,98880.00
2023-10-23T17:09:40.716Z,98880.40
2023-10-23T17:12:07.311Z,98880.40
2023-10-23T17:14:33.057Z,98880.20
2023-10-23T17:16:58.821Z,98877.20
2023-10-23T17:19:24.675Z,98872.00
2023-10-23T17:21:50.836Z,98868.00
2023-10-23T17:24:16.585Z,98870.00
2023-10-23T17:26:42.508Z,98864.60
2023-10-23T17:29:10.220Z,98871.40
2023-10-23T17:31:36.447Z,98863.80
2023-10-23T17:34:02.503Z,98869.40
2023-10-23T17:36:29.996Z,98864.00
2023-10-23T17:38:56.628Z,98864.60
2023-10-23T17:41:22.587Z,98862.60
2023-10-23T17:43:48.354Z,98865.20
2023-10-23T17:46:14.394Z,98868.00
2023-10-23T17:48:40.814Z,98867.60
2023-10-23T17:51:10.725Z,98866.00
2023-10-23T17:53:41.961Z,98863.20
2023-10-23T17:56:15.882Z,98866.00
2023-10-23T17:58:41.650Z,98863.80
2023-10-23T18:01:09.769Z,98862.40
2023-10-23T18:03:36.609Z,98859.00
2023-10-23T18:06:03.347Z,98857.20
2023-10-23T18:08:35.226Z,98856.40
2023-10-23T18:11:07.861Z,98856.20
2023-10-23T18:13:34.274Z,98861.40
2023-10-23T18:16:01.549Z,98858.20
2023-10-23T18:18:27.355Z,98860.40
2023-10-23T18:20:54.504Z,98861.20
2023-10-23T18:25:47.100Z,98857.80
2023-10-23T18:28:13.408Z,98854.80
2023-10-23T18:30:39.237Z,98856.20
2023-10-23T18:33:05.009Z,98849.60
2023-10-23T18:35:35.646Z,98854.20
2023-10-23T18:38:04.724Z,98858.20
2023-10-23T18:40:34.313Z,98856.20
2023-10-23T18:43:02.518Z,98857.00
2023-10-23T18:45:28.379Z,98849.80
2023-10-23T18:47:54.469Z,98853.40
2023-10-23T18:50:20.390Z,98853.80
2023-10-23T18:52:46.295Z,98853.00
2023-10-23T18:55:12.312Z,98855.20
2023-10-23T18:57:38.205Z,98849.40
2023-10-23T19:00:04.814Z,98848.00
2023-10-23T19:02:30.680Z,98842.20
2023-10-23T19:04:56.970Z,98841.40
2023-10-23T19:07:22.776Z,98843.00
2023-10-23T19:09:48.659Z,98846.80
2023-10-23T19:12:15.023Z,98850.00
2023-10-23T19:14:40.943Z,98849.40
2023-10-23T19:17:06.735Z,98846.00
2023-10-23T19:19:33.134Z,98849.40
2023-10-23T19:21:59.759Z,98845.80
2023-10-23T19:24:28.954Z,98848.20
2023-10-23T19:26:54.766Z,98847.40
2023-10-23T19:29:20.487Z,98845.60
2023-10-23T19:31:46.924Z,98847.40
2023-10-23T19:34:13.772Z,98851.60
2023-10-23T19:36:40.031Z,98849.00
2023-10-23T19:39:07.641Z,98844.80
2023-10-23T19:41:52.279Z,98848.60
2023-10-23T19:44:19.910Z,98850.20
2023-10-23T19:46:46.754Z,98848.20
2023-10-23T19:49:23.168Z,98845.80
2023-10-23T19:51:53.914Z,98846.00
2023-10-23T19:54:37.717Z,98847.80
2023-10-23T19:56:47.763Z,98843.60
2023-10-23T19:59:13.612Z,98844.60
2023-10-23T20:01:40.383Z,98845.00
2023-10-23T20:04:08.248Z,98844.60
2023-10-23T20:06:34.362Z,98845.00
2023-10-23T20:09:00.200Z,98846.40
2023-10-23T20:11:25.994Z,98850.00
2023-10-23T20:13:51.827Z,98850.40
2023-10-23T20:16:17.816Z,98847.40
2023-10-23T20:18:44.014Z,98844.80
2023-10-23T20:21:12.221Z,98844.40
2023-10-23T20:23:37.996Z,98840.60
2023-10-23T20:26:15.692Z,98844.60
2023-10-23T20:28:43.943Z,98841.80
2023-10-23T20:33:49.776Z,98846.40
2023-10-23T20:36:15.910Z,98841.60
2023-10-23T20:38:41.643Z,98840.00
2023-10-23T20:41:18.683Z,98840.00
2023-10-23T20:43:47.027Z,98841.00
2023-10-23T20:46:13.772Z,98838.60
2023-10-23T20:48:39.602Z,98841.40
2023-10-23T20:51:06.326Z,98842.40
2023-10-23T20:53:32.246Z,98840.80
2023-10-23T20:56:02.380Z,98840.60
2023-10-23T20:58:28.288Z,98839.00
2023-10-23T21:00:54.209Z,98840.80
2023-10-23T21:03:20.231Z,98842.80
2023-10-23T21:05:46.143Z,98839.60
2023-10-23T21:08:12.136Z,98840.20
2023-10-23T21:10:37.983Z,98841.40
2023-10-23T21:13:03.884Z,98841.00
2023-10-23T21:15:29.732Z,98846.00
2023-10-23T21:17:56.472Z,98844.20
2023-10-23T21:20:23.482Z,98841.80
2023-10-23T21:22:49.287Z,98840.60
2023-10-23T21:25:15.243Z,98837.60
2023-10-23T21:27:41.222Z,98839.20
2023-10-23T21:30:07.704Z,98837.80
2023-10-23T21:32:33.590Z,98842.00
2023-10-23T21:34:59.481Z,98835.20
2023-10-23T21:37:25.368Z,98831.60
2023-10-23T21:39:51.255Z,98832.00
2023-10-23T21:42:17.031Z,98830.40
2023-10-23T21:44:42.827Z,98827.40
2023-10-23T21:47:08.696Z,98823.60
2023-10-23T21:49:34.729Z,98827.00
2023-10-23T21:52:00.934Z,98823.20
2023-10-23T21:54:27.092Z,98824.00
2023-10-23T21:57:19.232Z,98824.40
2023-10-23T21:59:40.033Z,98824.00
2023-10-23T22:02:06.378Z,98819.20
2023-10-23T22:04:32.710Z,98822.00
2023-10-23T22:07:00.030Z,98819.20
2023-10-23T22:09:26.593Z,98815.80
2023-10-23T22:11:54.940Z,98817.00
2023-10-23T22:14:21.205Z,98819.00
2023-10-23T22:16:47.119Z,98807.20
2023-10-23T22:19:13.642Z,98815.00
2023-10-23T22:21:39.512Z,98821.00
2023-10-23T22:24:06.264Z,98819.60
2023-10-23T22:26:33.012Z,98820.40
2023-10-23T22:28:59.786Z,98817.20
2023-10-23T22:31:26.026Z,98815.80
2023-10-23T22:33:51.889Z,98816.60
2023-10-23T22:36:17.654Z,98819.60
2023-10-23T22:38:43.890Z,98820.80
2023-10-23T22:41:09.677Z,98816.40
2023-10-23T22:43:35.451Z,98814.60
2023-10-23T22:46:04.464Z,98814.00
2023-10-23T22:48:31.340Z,98808.80
2023-10-23T22:50:57.631Z,98805.00
2023-10-23T22:53:24.216Z,98800.80
2023-10-23T22:55:54.834Z,98801.20
2023-10-23T22:58:22.932Z,98798.40
2023-10-23T23:00:49.036Z,98791.60
2023-10-23T23:03:15.215Z,98797.60
2023-10-23T23:05:43.508Z,98797.40
2023-10-23T23:08:12.975Z,98802.20
2023-10-23T23:10:39.235Z,98792.20
2023-10-23T23:13:05.444Z,98788.60
2023-10-23T23:15:31.544Z,98788.60
2023-10-23T23:18:01.692Z,98790.60
2023-10-23T23:20:35.219Z,98785.60
2023-10-23T23:23:00.928Z,98784.20
2023-10-23T23:25:26.855Z,98782.20
2023-10-23T23:27:52.574Z,98778.20
2023-10-23T23:30:19.334Z,98772.20
2023-10-23T23:32:45.191Z,98769.20
2023-10-23T23:35:10.965Z,98773.80
2023-10-23T23:37:36.861Z,98769.20
2023-10-23T23:40:04.718Z,98760.80
2023-10-23T23:42:30.438Z,98763.60
2023-10-23T23:44:56.306Z,98760.40
2023-10-23T23:47:22.143Z,98752.00
2023-10-23T23:49:48.161Z,98752.40
2023-10-23T23:52:14.541Z,98753.40
2023-10-23T23:54:40.444Z,98753.20
2023-10-23T23:57:07.775Z,98759.80
2023-10-23T23:59:33.506Z,98761.00
